createdAt,value
2019-05-29T00:01:20.382Z,1.35
2019-05-29T00:03:48.060Z,1.10
2019-05-29T00:06:18.471Z,1.00
2019-05-29T00:08:47.743Z,2.52
2019-05-29T00:11:16.904Z,1.20
2019-05-29T00:13:46.173Z,2.05
2019-05-29T00:16:15.386Z,2.27
2019-05-29T00:18:44.620Z,0.80
2019-05-29T00:21:14.710Z,3.08
2019-05-29T00:23:43.949Z,1.50
2019-05-29T00:26:13.158Z,0.80
2019-05-29T00:28:42.374Z,1.40
2019-05-29T00:31:12.213Z,0.93
2019-05-29T00:33:41.341Z,1.30
2019-05-29T00:36:10.524Z,1.40
2019-05-29T00:38:39.763Z,2.27
2019-05-29T00:41:08.994Z,2.35
2019-05-29T00:43:38.213Z,2.45
2019-05-29T00:46:07.391Z,2.30
2019-05-29T00:48:36.574Z,3.37
2019-05-29T00:51:05.774Z,3.45
2019-05-29T00:53:34.979Z,3.02
2019-05-29T00:56:04.218Z,3.63
2019-05-29T00:58:33.386Z,4.58
2019-05-29T01:01:02.585Z,5.92
2019-05-29T01:03:31.783Z,6.90
2019-05-29T01:06:00.981Z,6.22
2019-05-29T01:08:30.442Z,7.40
2019-05-29T01:10:59.619Z,7.50
2019-05-29T01:13:28.805Z,8.65
2019-05-29T01:15:57.979Z,8.88
2019-05-29T01:18:27.192Z,9.48
2019-05-29T01:20:56.586Z,9.95
2019-05-29T01:23:26.016Z,9.45
2019-05-29T01:25:55.305Z,7.87
2019-05-29T01:28:24.746Z,8.08
2019-05-29T01:30:53.973Z,8.33
2019-05-29T01:33:24.705Z,8.30
2019-05-29T01:35:54.179Z,7.78
2019-05-29T01:38:23.572Z,8.23
2019-05-29T01:40:52.803Z,7.70
2019-05-29T01:43:21.979Z,8.88
2019-05-29T01:45:51.199Z,8.20
2019-05-29T01:48:21.409Z,8.35
2019-05-29T01:50:50.892Z,7.47
2019-05-29T01:53:20.049Z,10.00
2019-05-29T01:55:49.214Z,9.78
2019-05-29T01:58:20.320Z,7.87
2019-05-29T02:00:49.482Z,8.75
2019-05-29T02:03:19.838Z,10.80
2019-05-29T02:05:49.081Z,9.75
2019-05-29T02:08:18.247Z,8.97
2019-05-29T02:10:47.434Z,9.15
2019-05-29T02:13:17.273Z,8.45
2019-05-29T02:15:46.729Z,10.48
2019-05-29T02:18:16.785Z,10.58
2019-05-29T02:20:46.074Z,10.38
2019-05-29T02:23:15.816Z,10.60
2019-05-29T02:25:44.927Z,9.73
2019-05-29T02:28:14.150Z,10.20
2019-05-29T02:30:43.341Z,10.60
2019-05-29T02:33:12.517Z,9.15
2019-05-29T02:35:41.810Z,8.83
2019-05-29T02:38:11.037Z,10.57
2019-05-29T02:40:40.185Z,11.55
2019-05-29T02:43:09.425Z,9.90
2019-05-29T02:45:53.449Z,12.58
2019-05-29T02:48:09.560Z,12.35
2019-05-29T02:50:38.776Z,11.80
2019-05-29T02:53:08.022Z,10.82
2019-05-29T02:55:37.210Z,12.60
2019-05-29T02:58:06.585Z,13.18
2019-05-29T03:01:04.244Z,13.85
2019-05-29T03:03:39.562Z,15.48
2019-05-29T03:06:04.359Z,15.25
2019-05-29T03:08:34.353Z,13.30
2019-05-29T03:11:03.823Z,15.48
2019-05-29T03:13:33.801Z,13.50
2019-05-29T03:16:11.312Z,16.23
2019-05-29T03:18:34.975Z,17.30
2019-05-29T03:21:04.602Z,17.73
2019-05-29T03:23:35.927Z,17.80
2019-05-29T03:26:04.941Z,16.00
2019-05-29T03:28:35.096Z,18.67
2019-05-29T03:31:04.674Z,18.57
2019-05-29T03:33:43.090Z,20.80
2019-05-29T03:36:04.714Z,18.95
2019-05-29T03:38:34.912Z,20.12
2019-05-29T03:41:04.486Z,21.40
2019-05-29T03:43:36.111Z,22.17
2019-05-29T03:46:04.634Z,21.37
2019-05-29T03:48:34.440Z,20.85
2019-05-29T03:51:03.838Z,17.67
2019-05-29T03:53:33.847Z,19.75
2019-05-29T03:56:04.343Z,22.22
2019-05-29T03:58:35.123Z,21.03
2019-05-29T04:01:04.826Z,22.30
2019-05-29T04:03:35.619Z,20.72
2019-05-29T04:06:05.675Z,16.90
2019-05-29T04:08:35.716Z,18.55
2019-05-29T04:11:06.025Z,21.68
2019-05-29T04:13:36.265Z,22.50
2019-05-29T04:16:06.345Z,22.17
2019-05-29T04:18:37.981Z,23.37
2019-05-29T04:21:07.291Z,20.10
2019-05-29T04:23:38.250Z,24.82
2019-05-29T04:26:09.439Z,20.20
2019-05-29T04:28:39.169Z,19.52
2019-05-29T04:31:08.406Z,23.40
2019-05-29T04:33:38.906Z,20.62
2019-05-29T04:36:08.285Z,22.82
2019-05-29T04:38:39.714Z,24.63
2019-05-29T04:41:08.514Z,22.62
2019-05-29T04:43:39.667Z,24.98
2019-05-29T04:46:08.617Z,24.45
2019-05-29T04:48:40.212Z,23.95
2019-05-29T04:51:08.966Z,21.50
2019-05-29T04:53:39.712Z,24.20
2019-05-29T04:56:09.273Z,24.60
2019-05-29T04:58:39.075Z,25.10
2019-05-29T05:01:09.071Z,24.23
2019-05-29T05:03:39.408Z,25.32
2019-05-29T05:06:09.045Z,23.35
2019-05-29T05:08:39.512Z,23.80
2019-05-29T05:11:10.917Z,24.70
2019-05-29T05:13:40.241Z,24.75
2019-05-29T05:16:09.643Z,22.25
2019-05-29T05:18:40.033Z,26.17
2019-05-29T05:21:09.445Z,22.75
2019-05-29T05:23:38.605Z,23.57
2019-05-29T05:26:07.841Z,24.77
2019-05-29T05:28:38.518Z,22.52
2019-05-29T05:31:07.912Z,24.23
2019-05-29T05:33:37.174Z,17.37
2019-05-29T05:36:06.407Z,23.95
2019-05-29T05:38:36.707Z,25.17
2019-05-29T05:41:05.996Z,21.37
2019-05-29T05:43:35.229Z,24.30
2019-05-29T05:46:04.422Z,24.27
2019-05-29T05:48:33.654Z,24.57
2019-05-29T05:51:02.869Z,21.70
2019-05-29T05:53:33.326Z,20.40
2019-05-29T05:56:02.557Z,21.10
2019-05-29T05:58:31.872Z,21.27
2019-05-29T06:01:01.070Z,23.30
2019-05-29T06:03:30.281Z,23.00
2019-05-29T06:06:00.714Z,19.87
2019-05-29T06:08:30.026Z,21.97
2019-05-29T06:10:59.327Z,20.25
2019-05-29T06:13:28.748Z,21.80
2019-05-29T06:15:58.013Z,20.85
2019-05-29T06:18:27.185Z,20.65
2019-05-29T06:20:56.381Z,18.48
2019-05-29T06:23:25.645Z,19.23
2019-05-29T06:25:54.842Z,19.20
2019-05-29T06:28:24.118Z,18.60
2019-05-29T06:30:53.368Z,17.95
2019-05-29T06:33:22.544Z,19.40
2019-05-29T06:35:51.735Z,17.17
2019-05-29T06:38:21.011Z,17.30
2019-05-29T06:40:50.222Z,16.97
2019-05-29T06:43:23.984Z,17.67
2019-05-29T06:45:54.969Z,16.57
2019-05-29T06:48:41.578Z,16.02
2019-05-29T06:50:57.586Z,15.08
2019-05-29T06:53:27.022Z,15.30
2019-05-29T06:55:57.533Z,15.53
2019-05-29T06:58:27.307Z,14.45
2019-05-29T07:00:56.604Z,13.40
2019-05-29T07:03:25.876Z,12.65
2019-05-29T07:05:55.074Z,13.40
2019-05-29T07:08:38.347Z,12.35
2019-05-29T07:10:55.249Z,13.32
2019-05-29T07:13:24.712Z,14.28
2019-05-29T07:15:53.931Z,14.78
2019-05-29T07:18:23.115Z,13.43
2019-05-29T07:20:52.388Z,15.00
2019-05-29T07:23:21.561Z,13.60
2019-05-29T07:25:50.784Z,13.78
2019-05-29T07:28:20.088Z,12.50
2019-05-29T07:31:00.356Z,13.63
2019-05-29T07:33:20.390Z,12.90
2019-05-29T07:35:49.672Z,11.83
2019-05-29T07:38:18.926Z,12.00
2019-05-29T07:40:50.112Z,11.85
2019-05-29T07:43:19.199Z,12.60
2019-05-29T07:45:48.474Z,11.80
2019-05-29T07:48:17.688Z,11.73
2019-05-29T07:50:46.967Z,9.70
2019-05-29T07:53:16.194Z,10.98
2019-05-29T07:55:46.667Z,10.18
2019-05-29T07:58:15.877Z,9.73
2019-05-29T08:01:06.944Z,9.58
2019-05-29T08:03:16.056Z,9.13
2019-05-29T08:05:49.207Z,9.78
2019-05-29T08:08:16.276Z,9.68
2019-05-29T08:10:45.600Z,10.20
2019-05-29T08:13:14.837Z,9.03
2019-05-29T08:15:57.499Z,9.53
2019-05-29T08:18:15.379Z,8.98
2019-05-29T08:20:44.560Z,7.33
2019-05-29T08:23:13.781Z,8.55
2019-05-29T08:25:43.437Z,6.22
2019-05-29T08:28:12.961Z,7.83
2019-05-29T08:30:47.384Z,7.72
2019-05-29T08:33:13.289Z,6.50
2019-05-29T08:35:43.063Z,6.83
2019-05-29T08:38:12.362Z,7.10
2019-05-29T08:40:41.654Z,6.50
2019-05-29T08:43:10.913Z,7.30
2019-05-29T08:45:41.559Z,7.00
2019-05-29T08:48:10.786Z,5.62
2019-05-29T08:50:41.476Z,7.13
2019-05-29T08:53:11.051Z,5.83
2019-05-29T08:55:40.298Z,6.33
2019-05-29T08:58:09.531Z,6.83
2019-05-29T09:00:38.707Z,5.80
2019-05-29T09:03:07.924Z,5.17
2019-05-29T09:05:37.223Z,5.80
2019-05-29T09:08:06.459Z,5.50
2019-05-29T09:10:35.657Z,5.30
2019-05-29T09:13:05.431Z,5.70
2019-05-29T09:15:34.613Z,5.62
2019-05-29T09:18:04.070Z,5.60
2019-05-29T09:20:57.968Z,5.65
2019-05-29T09:23:04.220Z,5.30
2019-05-29T09:25:33.388Z,4.53
2019-05-29T09:28:02.188Z,4.93
2019-05-29T09:30:31.401Z,4.70
2019-05-29T09:33:00.629Z,6.03
2019-05-29T09:35:29.844Z,5.53
2019-05-29T09:37:59.046Z,5.20
2019-05-29T09:40:28.239Z,5.25
2019-05-29T09:42:57.454Z,4.97
2019-05-29T09:45:26.676Z,6.03
2019-05-29T09:47:55.865Z,5.65
2019-05-29T09:50:27.473Z,5.55
2019-05-29T09:52:57.186Z,4.30
2019-05-29T09:55:27.372Z,5.50
2019-05-29T09:57:56.895Z,4.95
2019-05-29T10:00:26.279Z,5.20
2019-05-29T10:02:55.683Z,5.65
2019-05-29T10:05:24.895Z,5.58
2019-05-29T10:07:55.130Z,5.85
2019-05-29T10:10:25.083Z,5.40
2019-05-29T10:12:55.371Z,4.83
2019-05-29T10:15:25.349Z,5.62
2019-05-29T10:17:55.862Z,5.28
2019-05-29T10:20:26.990Z,5.55
2019-05-29T10:22:57.133Z,5.00
2019-05-29T10:25:26.375Z,4.97
2019-05-29T10:27:55.601Z,5.40
2019-05-29T10:30:26.361Z,5.00
2019-05-29T10:32:55.542Z,4.40
2019-05-29T10:35:24.763Z,4.17
2019-05-29T10:37:53.989Z,4.50
2019-05-29T10:40:23.271Z,4.00
2019-05-29T10:42:53.512Z,5.10
2019-05-29T10:45:23.015Z,4.40
2019-05-29T10:47:52.782Z,4.83
2019-05-29T10:50:23.180Z,4.33
2019-05-29T10:52:52.356Z,5.22
2019-05-29T10:55:23.310Z,4.97
2019-05-29T10:57:53.234Z,4.12
2019-05-29T11:00:23.023Z,3.83
2019-05-29T11:02:53.519Z,3.62
2019-05-29T11:05:23.207Z,4.17
2019-05-29T11:07:52.405Z,3.90
2019-05-29T11:10:21.662Z,4.08
2019-05-29T11:12:50.923Z,3.00
2019-05-29T11:15:22.064Z,3.47
2019-05-29T11:17:51.598Z,2.85
2019-05-29T11:20:21.083Z,2.65
2019-05-29T11:22:51.537Z,2.93
2019-05-29T11:25:26.497Z,3.27
2019-05-29T11:27:53.229Z,4.03
2019-05-29T11:30:23.430Z,3.60
2019-05-29T11:32:54.983Z,3.20
2019-05-29T11:35:23.595Z,3.40
2019-05-29T11:37:52.904Z,3.90
2019-05-29T11:40:22.232Z,3.33
2019-05-29T11:42:52.676Z,2.70
2019-05-29T11:45:22.248Z,2.97
2019-05-29T11:47:53.696Z,2.33
2019-05-29T11:50:22.822Z,3.40
2019-05-29T11:52:52.370Z,3.47
2019-05-29T11:55:21.683Z,3.65
2019-05-29T11:57:51.804Z,3.67
2019-05-29T12:00:21.771Z,4.10
2019-05-29T12:02:51.491Z,4.42
2019-05-29T12:05:21.241Z,3.35
2019-05-29T12:07:51.542Z,3.98
2019-05-29T12:10:21.416Z,3.72
2019-05-29T12:12:51.417Z,4.22
2019-05-29T12:15:20.864Z,3.98
2019-05-29T12:17:55.694Z,3.95
2019-05-29T12:20:28.220Z,4.60
2019-05-29T12:23:16.313Z,1.63
2019-05-29T12:25:23.202Z,3.10
2019-05-29T12:27:52.773Z,3.75
2019-05-29T12:30:22.163Z,4.33
2019-05-29T12:32:52.647Z,4.60
2019-05-29T12:35:21.995Z,3.72
2019-05-29T12:37:51.242Z,3.70
2019-05-29T12:40:21.442Z,2.98
2019-05-29T12:42:50.740Z,4.30
2019-05-29T12:45:20.757Z,2.55
2019-05-29T12:47:49.942Z,3.12
2019-05-29T12:50:19.658Z,2.20
2019-05-29T12:52:49.059Z,2.02
2019-05-29T12:55:18.340Z,2.83
2019-05-29T12:57:47.454Z,2.10
2019-05-29T13:00:18.929Z,2.95
2019-05-29T13:02:48.149Z,2.65
2019-05-29T13:05:20.398Z,1.83
2019-05-29T13:07:48.868Z,2.60
2019-05-29T13:10:29.858Z,1.70
2019-05-29T13:12:51.541Z,3.45
2019-05-29T13:15:21.410Z,2.30
2019-05-29T13:17:54.427Z,3.33
2019-05-29T13:20:22.521Z,2.10
2019-05-29T13:22:51.771Z,2.83
2019-05-29T13:25:21.171Z,2.08
2019-05-29T13:27:50.395Z,3.12
2019-05-29T13:30:23.059Z,2.58
2019-05-29T13:32:52.350Z,1.85
2019-05-29T13:35:22.584Z,1.67
2019-05-29T13:37:51.831Z,1.63
2019-05-29T13:40:21.071Z,1.85
2019-05-29T13:42:50.288Z,1.67
2019-05-29T13:45:19.765Z,2.60
2019-05-29T13:47:48.969Z,2.20
2019-05-29T13:50:18.746Z,2.52
2019-05-29T13:52:47.977Z,3.00
2019-05-29T13:55:17.503Z,1.70
2019-05-29T13:57:46.703Z,1.57
2019-05-29T14:00:32.263Z,2.30
2019-05-29T14:02:47.666Z,2.52
2019-05-29T14:05:17.728Z,2.90
2019-05-29T14:07:47.136Z,2.05
2019-05-29T14:10:16.629Z,2.10
2019-05-29T14:12:45.868Z,1.92
2019-05-29T14:15:15.715Z,2.35
2019-05-29T14:17:45.047Z,2.00
2019-05-29T14:20:14.512Z,2.23
2019-05-29T14:22:43.753Z,2.20
2019-05-29T14:25:13.960Z,1.80
2019-05-29T14:27:43.155Z,2.92
2019-05-29T14:30:13.972Z,2.57
2019-05-29T14:32:43.423Z,3.43
2019-05-29T14:35:13.552Z,2.22
2019-05-29T14:37:42.792Z,2.77
2019-05-29T14:40:12.464Z,3.05
2019-05-29T14:42:42.144Z,1.90
2019-05-29T14:45:12.701Z,2.17
2019-05-29T14:47:41.897Z,1.95
2019-05-29T14:50:13.462Z,1.70
2019-05-29T14:52:42.896Z,1.50
2019-05-29T14:55:16.077Z,1.72
2019-05-29T14:57:43.400Z,1.45
2019-05-29T15:00:24.100Z,1.77
2019-05-29T15:02:44.414Z,0.90
2019-05-29T15:05:15.325Z,1.00
2019-05-29T15:07:44.522Z,2.40
2019-05-29T15:10:24.957Z,1.27
2019-05-29T15:12:45.131Z,2.37
2019-05-29T15:15:16.427Z,1.50
2019-05-29T15:17:45.818Z,1.50
2019-05-29T15:20:16.839Z,1.40
2019-05-29T15:22:46.329Z,2.10
2019-05-29T15:25:23.429Z,0.80
2019-05-29T15:27:46.860Z,1.17
2019-05-29T15:30:22.340Z,1.55
2019-05-29T15:32:47.736Z,1.77
2019-05-29T15:35:20.131Z,1.27
2019-05-29T15:37:49.525Z,1.37
2019-05-29T15:40:19.111Z,0.90
2019-05-29T15:42:48.831Z,1.40
2019-05-29T15:45:18.448Z,1.05
2019-05-29T15:47:48.143Z,1.73
2019-05-29T15:50:18.432Z,1.77
2019-05-29T15:52:49.574Z,1.07
2019-05-29T15:55:29.536Z,1.40
2019-05-29T15:57:50.045Z,1.60
2019-05-29T16:00:19.521Z,2.27
2019-05-29T16:02:49.781Z,1.35
2019-05-29T16:05:19.609Z,1.10
2019-05-29T16:07:48.875Z,2.25
2019-05-29T16:10:20.970Z,1.50
2019-05-29T16:12:50.404Z,2.10
2019-05-29T16:15:20.801Z,1.87
2019-05-29T16:17:50.045Z,1.32
2019-05-29T16:20:19.712Z,2.10
2019-05-29T16:22:49.070Z,1.65
2019-05-29T16:25:19.180Z,1.57
2019-05-29T16:27:48.444Z,1.80
2019-05-29T16:30:18.178Z,1.65
2019-05-29T16:32:48.138Z,1.37
2019-05-29T16:35:19.423Z,2.43
2019-05-29T16:37:49.165Z,1.42
2019-05-29T16:40:19.966Z,1.65
2019-05-29T16:42:49.657Z,4.28
2019-05-29T16:45:20.451Z,1.75
2019-05-29T16:47:50.005Z,1.30
2019-05-29T16:50:21.128Z,1.80
2019-05-29T16:52:50.478Z,1.70
2019-05-29T16:55:20.945Z,1.63
2019-05-29T16:57:50.350Z,2.77
2019-05-29T17:00:21.502Z,2.37
2019-05-29T17:02:51.525Z,1.72
2019-05-29T17:05:22.137Z,1.57
2019-05-29T17:07:51.750Z,1.45
2019-05-29T17:10:25.452Z,1.50
2019-05-29T17:12:54.881Z,1.67
2019-05-29T17:15:24.761Z,1.77
2019-05-29T17:17:54.462Z,1.40
2019-05-29T17:20:38.584Z,1.65
2019-05-29T17:23:07.998Z,1.40
2019-05-29T17:25:37.188Z,1.22
2019-05-29T17:28:06.595Z,2.35
2019-05-29T17:30:36.085Z,1.95
2019-05-29T17:33:06.123Z,3.00
2019-05-29T17:35:35.516Z,2.08
2019-05-29T17:38:04.776Z,1.72
2019-05-29T17:40:33.964Z,2.27
2019-05-29T17:43:03.458Z,1.50
2019-05-29T17:45:32.743Z,1.72
2019-05-29T17:48:02.056Z,1.60
2019-05-29T17:50:31.186Z,1.40
2019-05-29T17:53:00.457Z,1.77
2019-05-29T17:55:29.677Z,2.37
2019-05-29T17:57:58.928Z,1.95
2019-05-29T18:00:28.170Z,1.60
2019-05-29T18:02:57.382Z,1.20
2019-05-29T18:05:26.746Z,2.25
2019-05-29T18:07:56.084Z,1.20
2019-05-29T18:10:25.779Z,2.00
2019-05-29T18:12:54.980Z,1.20
2019-05-29T18:15:25.546Z,1.17
2019-05-29T18:17:55.244Z,1.43
2019-05-29T18:20:25.704Z,1.57
2019-05-29T18:22:55.090Z,2.05
2019-05-29T18:25:25.947Z,1.98
2019-05-29T18:27:55.324Z,1.77
2019-05-29T18:30:24.767Z,2.50
2019-05-29T18:32:54.239Z,1.75
2019-05-29T18:35:23.564Z,1.67
2019-05-29T18:37:52.852Z,1.70
2019-05-29T18:40:22.409Z,1.60
2019-05-29T18:42:51.782Z,1.90
2019-05-29T18:45:23.450Z,2.05
2019-05-29T18:47:52.367Z,2.30
2019-05-29T18:50:21.920Z,2.80
2019-05-29T18:52:51.293Z,2.83
2019-05-29T18:55:20.868Z,2.67
2019-05-29T18:57:50.254Z,3.35
2019-05-29T19:00:21.261Z,3.15
2019-05-29T19:02:50.783Z,2.85
2019-05-29T19:05:21.410Z,2.02
2019-05-29T19:07:50.856Z,2.87
2019-05-29T19:10:21.598Z,4.30
2019-05-29T19:12:50.959Z,3.33
2019-05-29T19:15:21.868Z,2.10
2019-05-29T19:17:51.174Z,2.60
2019-05-29T19:20:22.111Z,2.62
2019-05-29T19:22:51.432Z,2.30
2019-05-29T19:25:20.829Z,2.30
2019-05-29T19:27:50.070Z,3.33
2019-05-29T19:30:20.393Z,3.30
2019-05-29T19:32:49.621Z,2.87
2019-05-29T19:35:19.904Z,2.90
2019-05-29T19:37:49.113Z,4.50
2019-05-29T19:40:19.260Z,3.52
2019-05-29T19:42:48.507Z,2.92
2019-05-29T19:45:18.184Z,3.20
2019-05-29T19:47:47.631Z,3.67
2019-05-29T19:50:16.966Z,2.90
2019-05-29T19:52:46.317Z,2.70
2019-05-29T19:55:16.708Z,2.65
2019-05-29T19:57:55.642Z,3.37
2019-05-29T20:00:18.398Z,2.85
2019-05-29T20:02:47.844Z,2.65
2019-05-29T20:05:17.461Z,3.53
2019-05-29T20:07:46.692Z,4.65
2019-05-29T20:10:16.250Z,4.37
2019-05-29T20:12:45.667Z,3.95
2019-05-29T20:15:15.778Z,4.33
2019-05-29T20:17:45.119Z,3.80
2019-05-29T20:20:14.468Z,3.10
2019-05-29T20:22:43.656Z,4.10
2019-05-29T20:25:14.015Z,3.42
2019-05-29T20:27:43.344Z,5.42
2019-05-29T20:30:17.573Z,5.33
2019-05-29T20:32:46.865Z,8.85
2019-05-29T20:35:16.533Z,6.45
2019-05-29T20:37:45.945Z,5.90
2019-05-29T20:40:15.516Z,6.97
2019-05-29T20:42:44.803Z,4.58
2019-05-29T20:45:14.156Z,4.12
2019-05-29T20:47:43.563Z,4.35
2019-05-29T20:50:13.735Z,5.33
2019-05-29T20:52:43.121Z,5.70
2019-05-29T20:55:12.487Z,8.58
2019-05-29T20:57:42.211Z,7.05
2019-05-29T21:00:12.899Z,6.22
2019-05-29T21:02:42.693Z,4.37
2019-05-29T21:05:13.475Z,5.42
2019-05-29T21:07:42.984Z,4.53
2019-05-29T21:10:13.378Z,5.03
2019-05-29T21:12:46.104Z,5.55
2019-05-29T21:15:14.321Z,4.75
2019-05-29T21:17:44.084Z,5.47
2019-05-29T21:20:13.369Z,5.45
2019-05-29T21:22:43.004Z,4.12
2019-05-29T21:25:17.573Z,4.53
2019-05-29T21:27:47.062Z,4.30
2019-05-29T21:30:14.795Z,3.70
2019-05-29T21:32:44.361Z,4.12
2019-05-29T21:35:13.721Z,3.80
2019-05-29T21:37:44.311Z,4.67
2019-05-29T21:40:14.214Z,4.40
2019-05-29T21:42:44.769Z,3.93
2019-05-29T21:45:14.188Z,3.40
2019-05-29T21:47:43.649Z,4.40
2019-05-29T21:50:13.197Z,3.15
2019-05-29T21:52:43.635Z,4.75
2019-05-29T21:55:13.379Z,3.75
2019-05-29T21:57:45.568Z,3.83
2019-05-29T22:00:18.005Z,3.40
2019-05-29T22:02:48.537Z,3.50
2019-05-29T22:05:18.347Z,3.10
2019-05-29T22:07:48.862Z,3.00
2019-05-29T22:10:18.299Z,4.05
2019-05-29T22:12:47.531Z,4.25
2019-05-29T22:15:16.874Z,5.12
2019-05-29T22:17:46.110Z,4.60
2019-05-29T22:20:15.529Z,3.30
2019-05-29T22:22:44.863Z,3.90
2019-05-29T22:25:14.520Z,3.08
2019-05-29T22:27:43.742Z,3.05
2019-05-29T22:30:15.105Z,3.40
2019-05-29T22:32:44.536Z,3.40
2019-05-29T22:35:14.075Z,3.08
2019-05-29T22:37:43.598Z,3.55
2019-05-29T22:40:13.656Z,3.60
2019-05-29T22:42:43.012Z,2.50
2019-05-29T22:45:12.602Z,3.37
2019-05-29T22:47:41.805Z,4.85
2019-05-29T22:50:11.531Z,5.30
2019-05-29T22:52:40.891Z,4.90
2019-05-29T22:55:10.289Z,5.17
2019-05-29T22:57:39.547Z,5.67
2019-05-29T23:00:09.839Z,4.03
2019-05-29T23:07:35.644Z,4.93
2019-05-29T23:10:06.796Z,4.70
2019-05-29T23:12:36.378Z,3.58
2019-05-29T23:15:07.696Z,5.70
2019-05-29T23:17:36.951Z,4.13
2019-05-29T23:20:06.861Z,4.47
2019-05-29T23:22:36.272Z,6.05
2019-05-29T23:25:05.951Z,6.57
2019-05-29T23:27:35.473Z,5.17
2019-05-29T23:30:05.403Z,4.90
2019-05-29T23:32:34.588Z,7.05
2019-05-29T23:35:03.843Z,5.87
2019-05-29T23:37:33.578Z,4.20
2019-05-29T23:40:03.509Z,6.78
2019-05-29T23:42:33.036Z,6.42
2019-05-29T23:45:03.655Z,6.30
2019-05-29T23:47:32.954Z,5.80
2019-05-29T23:50:03.189Z,5.80
2019-05-29T23:52:33.340Z,7.37
2019-05-29T23:55:03.984Z,7.10
2019-05-29T23:57:33.347Z,7.40
